LICBLGKP

Guest
Details From LICB - Magliocco
To LGKP - KARPATHOS
Flight Number -
Tags generated
Created
Modified
Stats Distance 630 nm / 1,167 km
Max Altitude 35,000 ft / 10,668 m
Waypoints 10
Social Downloads 0
Likes 0
Share VATSIM

Download

Looking for another format? Having issues loading an existing format? Contact us
Advertisement - Login to hide

Notes

Basic altitude profile: - Ascent Rate: 2500ft/min - Ascent Speed: 250kts - Cruise Altitude: 35000ft - Cruise Speed: 420kts - Descent Rate: 1500ft/min - Descent Speed: 250kts Options: - Use NATs: yes - Use PACOTS: yes - Use low airways: yes - Use high airways: yes

Route

LICB ERNAM UM871 SUBOK UP158 DEMAG UM978 PLH UM872 AMAXI LGKP

ID Type Via Altitude Latitude Longitude Leg Dist Tot Dist Heading (true) Name
O LICB APT - 0 ft / 0 m 36.99403˚ 14.60627˚ - 0 nm - Magliocco
ERNAM FIX - 25,800 ft / 7,864 m 36.85833˚ 16.16250˚ 75 nm 75 nm 96° / 97° -
SUBOK FIX UM871 (AWY-HI) 35,000 ft / 10,668 m 36.50000˚ 16.85722˚ 39 nm 114 nm 123° / 123° -
ELKAN FIX UP158 (AWY-HI) 35,000 ft / 10,668 m 35.84616˚ 19.79486˚ 147 nm 262 nm 105° / 106° -
DEMAG FIX UP158 (AWY-HI) 35,000 ft / 10,668 m 35.51639˚ 21.15750˚ 69 nm 332 nm 106° / 107° -
PIDAS FIX UM978 (AWY-HI) 35,000 ft / 10,668 m 35.37694˚ 22.43833˚ 63 nm 395 nm 97° / 98° -
PLH VOR UM978 (AWY-HI) 35,000 ft / 10,668 m 35.22764˚ 23.68084˚ 61 nm 456 nm 98° / 99° PALEOCHORA VOR-DME
OTREX FIX UM872 (AWY-HI) 23,500 ft / 7,163 m 35.15444˚ 24.93889˚ 61 nm 518 nm 94° / 94° -
AMAXI FIX UM872 (AWY-HI) 23,500 ft / 7,163 m 35.09778˚ 25.78278˚ 41 nm 560 nm 94° / 95° -
O LGKP APT - 0 ft / 0 m 35.42141˚ 27.14601˚ 69 nm 629 nm 73° / 74° KARPATHOS

Altitude Profile

Advertisement - Login to hide

Weather


0- 5 10 15 20 25 30 35+ Temperature / ° C

Clouds and Precipitation
Forecast for 2017-12-13 00:00 UTC. Updated an hour ago

Ground ~20,000 ft ~40,000 ft Winds

LICB

Details ICAO LICB
Name Magliocco
Region Italy
Timezone Europe/Rome (UTC+1.0)
Stats Elevation 757 ft / 231 m (AMSL)
Location 36.994031° 14.606274°
Runways 1
Magnetic Variation 3.113° E

METAR

LICB 121950Z 07003KT CAVOK 08/07 Q1022

Decode

TAF

Not found

Departure Runways

ID Width Length Bearing (true) Bearing (mag) Surface Threshold Offset Overrun Length
05 147 ft / 45 m 8,334 ft / 2,540 m 49.99° 46.88° Asphalt 196 ft / 60 m 452 ft / 138 m
23 147 ft / 45 m 8,334 ft / 2,540 m 230.01° 226.90° Asphalt 0 ft / 0 m 0 ft / 0 m

LGKP

Details ICAO LGKP (AOK)
Name KARPATHOS
Region Greece
Timezone Europe/Athens (UTC+2.0)
Stats Elevation 66 ft / 20 m (AMSL)
Location 35.421407° 27.146007°
Runways 1
Magnetic Variation 4.589° E

METAR

LGKP 121950Z AUTO 31009KT //// // ////// 15/12 Q1022 RE//

Decode

TAF

Not found

Destination Runways

ID Width Length Bearing (true) Bearing (mag) Surface Threshold Offset Overrun Length
12 98 ft / 30 m 7,866 ft / 2,398 m 124.49° 119.90° Asphalt 492 ft / 150 m 983 ft / 300 m
30 98 ft / 30 m 7,866 ft / 2,398 m 304.50° 299.91° Asphalt 492 ft / 150 m 458 ft / 140 m